sensor_id;sensor_type;location;lat;lon;timestamp;pressure;altitude;pressure_sealevel;temperature;humidity
78509;BME280;67802;50.846;7.958;2024-02-26T00:01:21;96073.22;;;19.87;31.35
78509;BME280;67802;50.846;7.958;2024-02-26T00:03:46;96079.47;;;19.86;31.39
78509;BME280;67802;50.846;7.958;2024-02-26T00:06:12;96077.84;;;19.85;31.45
78509;BME280;67802;50.846;7.958;2024-02-26T00:08:38;96080.78;;;19.82;31.34
78509;BME280;67802;50.846;7.958;2024-02-26T00:11:03;96080.00;;;19.81;31.38
78509;BME280;67802;50.846;7.958;2024-02-26T00:13:28;96081.13;;;19.79;31.35
78509;BME280;67802;50.846;7.958;2024-02-26T00:15:54;96075.88;;;19.79;31.38
78509;BME280;67802;50.846;7.958;2024-02-26T00:18:19;96080.31;;;19.78;31.48
78509;BME280;67802;50.846;7.958;2024-02-26T00:20:44;96063.69;;;19.78;31.47
78509;BME280;67802;50.846;7.958;2024-02-26T00:23:10;96057.59;;;19.77;31.50
78509;BME280;67802;50.846;7.958;2024-02-26T00:25:35;96059.25;;;19.78;31.57
78509;BME280;67802;50.846;7.958;2024-02-26T00:28:03;96053.97;;;19.78;31.63
78509;BME280;67802;50.846;7.958;2024-02-26T00:30:28;96060.06;;;19.79;31.58
78509;BME280;67802;50.846;7.958;2024-02-26T00:32:54;96060.06;;;19.79;31.62
78509;BME280;67802;50.846;7.958;2024-02-26T00:35:19;96060.06;;;19.79;31.54
78509;BME280;67802;50.846;7.958;2024-02-26T00:37:45;96063.53;;;19.79;31.58
78509;BME280;67802;50.846;7.958;2024-02-26T00:40:11;96050.34;;;19.79;31.65
78509;BME280;67802;50.846;7.958;2024-02-26T00:42:36;96045.88;;;19.80;31.34
78509;BME280;67802;50.846;7.958;2024-02-26T00:45:02;96053.78;;;19.80;31.57
78509;BME280;67802;50.846;7.958;2024-02-26T00:47:27;96051.16;;;19.80;31.39
78509;BME280;67802;50.846;7.958;2024-02-26T00:49:52;96051.16;;;19.80;31.62
78509;BME280;67802;50.846;7.958;2024-02-26T00:52:18;96047.53;;;19.81;31.39
78509;BME280;67802;50.846;7.958;2024-02-26T00:54:43;96055.44;;;19.81;31.46
78509;BME280;67802;50.846;7.958;2024-02-26T00:57:08;96056.44;;;19.80;31.55
78509;BME280;67802;50.846;7.958;2024-02-26T00:59:34;96046.53;;;19.82;31.39
78509;BME280;67802;50.846;7.958;2024-02-26T01:01:59;96054.44;;;19.82;31.57
78509;BME280;67802;50.846;7.958;2024-02-26T01:04:27;96052.47;;;19.84;31.70
78509;BME280;67802;50.846;7.958;2024-02-26T01:06:52;96044.56;;;19.84;31.54
78509;BME280;67802;50.846;7.958;2024-02-26T01:09:18;96050.66;;;19.84;31.47
78509;BME280;67802;50.846;7.958;2024-02-26T01:11:43;96059.38;;;19.85;31.64
78509;BME280;67802;50.846;7.958;2024-02-26T01:14:09;96052.13;;;19.87;31.42
78509;BME280;67802;50.846;7.958;2024-02-26T01:16:34;96057.41;;;19.87;31.75
78509;BME280;67802;50.846;7.958;2024-02-26T01:18:59;96054.63;;;19.89;31.65
78509;BME280;67802;50.846;7.958;2024-02-26T01:21:25;96061.53;;;19.90;31.71
78509;BME280;67802;50.846;7.958;2024-02-26T01:23:52;96057.09;;;19.90;31.64
78509;BME280;67802;50.846;7.958;2024-02-26T01:26:17;96058.75;;;19.91;31.57
78509;BME280;67802;50.846;7.958;2024-02-26T01:28:42;96062.03;;;19.93;31.57
78509;BME280;67802;50.846;7.958;2024-02-26T01:31:09;96064.66;;;19.93;31.68
78509;BME280;67802;50.846;7.958;2024-02-26T01:33:34;96068.94;;;19.94;31.67
78509;BME280;67802;50.846;7.958;2024-02-26T01:35:59;96063.69;;;19.94;31.66
78509;BME280;67802;50.846;7.958;2024-02-26T01:38:25;96072.25;;;19.96;31.66
78509;BME280;67802;50.846;7.958;2024-02-26T01:40:51;96074.88;;;19.96;31.47
78509;BME280;67802;50.846;7.958;2024-02-26T01:43:16;96068.78;;;19.96;31.48
78509;BME280;67802;50.846;7.958;2024-02-26T01:45:42;96068.63;;;19.97;31.63
78509;BME280;67802;50.846;7.958;2024-02-26T01:48:07;96068.63;;;19.97;31.58
78509;BME280;67802;50.846;7.958;2024-02-26T01:50:33;96059.72;;;19.98;31.55
78509;BME280;67802;50.846;7.958;2024-02-26T01:53:00;96048.19;;;19.99;31.42
78509;BME280;67802;50.846;7.958;2024-02-26T01:55:26;96045.56;;;19.99;31.54
78509;BME280;67802;50.846;7.958;2024-02-26T01:57:51;96047.19;;;20.00;31.66
78509;BME280;67802;50.846;7.958;2024-02-26T02:00:18;96055.91;;;20.01;31.66
78509;BME280;67802;50.846;7.958;2024-02-26T02:02:44;96055.91;;;20.01;31.44
78509;BME280;67802;50.846;7.958;2024-02-26T02:05:12;96053.47;;;19.99;31.33
78509;BME280;67802;50.846;7.958;2024-02-26T02:07:40;96038.63;;;19.98;31.65
78509;BME280;67802;50.846;7.958;2024-02-26T02:10:06;96033.53;;;19.97;31.53
78509;BME280;67802;50.846;7.958;2024-02-26T02:12:32;96030.22;;;19.95;31.56
78509;BME280;67802;50.846;7.958;2024-02-26T02:14:59;96030.75;;;19.90;31.43
78509;BME280;67802;50.846;7.958;2024-02-26T02:17:26;96033.53;;;19.89;31.54
78509;BME280;67802;50.846;7.958;2024-02-26T02:19:52;96025.13;;;19.85;31.60
78509;BME280;67802;50.846;7.958;2024-02-26T02:22:17;96025.66;;;19.80;31.77
78509;BME280;67802;50.846;7.958;2024-02-26T02:24:42;96021.72;;;19.76;31.59
78509;BME280;67802;50.846;7.958;2024-02-26T02:27:08;96029.09;;;19.72;31.59
78509;BME280;67802;50.846;7.958;2024-02-26T02:29:33;96019.75;;;19.70;31.55
78509;BME280;67802;50.846;7.958;2024-02-26T02:31:59;96015.63;;;19.67;31.67
78509;BME280;67802;50.846;7.958;2024-02-26T02:34:26;96024.50;;;19.66;31.44
78509;BME280;67802;50.846;7.958;2024-02-26T02:36:52;96018.44;;;19.66;31.26
78509;BME280;67802;50.846;7.958;2024-02-26T02:39:18;96018.44;;;19.66;31.45
78509;BME280;67802;50.846;7.958;2024-02-26T02:41:44;96020.06;;;19.67;31.56
78509;BME280;67802;50.846;7.958;2024-02-26T02:44:09;96012.97;;;19.67;31.34
78509;BME280;67802;50.846;7.958;2024-02-26T02:46:34;96010.34;;;19.67;31.39
78509;BME280;67802;50.846;7.958;2024-02-26T02:49:00;96018.25;;;19.67;31.41
78509;BME280;67802;50.846;7.958;2024-02-26T02:51:26;96019.09;;;19.68;31.32
78509;BME280;67802;50.846;7.958;2024-02-26T02:53:51;96017.25;;;19.68;31.55
78509;BME280;67802;50.846;7.958;2024-02-26T02:56:16;96022.53;;;19.68;31.36
78509;BME280;67802;50.846;7.958;2024-02-26T02:58:41;96027.78;;;19.68;31.47
78509;BME280;67802;50.846;7.958;2024-02-26T03:01:07;96026.00;;;19.69;31.41
78509;BME280;67802;50.846;7.958;2024-02-26T03:03:33;96027.78;;;19.68;31.33
78509;BME280;67802;50.846;7.958;2024-02-26T03:05:58;96033.06;;;19.68;31.37
78509;BME280;67802;50.846;7.958;2024-02-26T03:08:24;96022.53;;;19.68;31.36
78509;BME280;67802;50.846;7.958;2024-02-26T03:10:51;96029.44;;;19.69;31.31
78509;BME280;67802;50.846;7.958;2024-02-26T03:13:16;96031.09;;;19.70;31.40
78509;BME280;67802;50.846;7.958;2024-02-26T03:15:41;96033.72;;;19.70;31.38
78509;BME280;67802;50.846;7.958;2024-02-26T03:18:07;96029.09;;;19.72;31.33
78509;BME280;67802;50.846;7.958;2024-02-26T03:20:32;96023.84;;;19.72;31.39
78509;BME280;67802;50.846;7.958;2024-02-26T03:22:58;96032.41;;;19.75;31.43
78509;BME280;67802;50.846;7.958;2024-02-26T03:25:23;96034.03;;;19.76;31.36
78509;BME280;67802;50.846;7.958;2024-02-26T03:27:48;96025.16;;;19.77;31.44
78509;BME280;67802;50.846;7.958;2024-02-26T03:30:14;96032.06;;;19.78;31.52
78509;BME280;67802;50.846;7.958;2024-02-26T03:32:39;96029.09;;;19.81;31.47
78509;BME280;67802;50.846;7.958;2024-02-26T03:35:04;96023.00;;;19.80;31.35
78509;BME280;67802;50.846;7.958;2024-02-26T03:37:30;96018.41;;;19.82;31.33
78509;BME280;67802;50.846;7.958;2024-02-26T03:39:55;96015.59;;;19.84;31.40
78509;BME280;67802;50.846;7.958;2024-02-26T03:42:22;96013.59;;;19.86;31.37
78509;BME280;67802;50.846;7.958;2024-02-26T03:44:47;96016.88;;;19.88;31.34
78509;BME280;67802;50.846;7.958;2024-02-26T03:47:13;96013.28;;;19.89;31.36
78509;BME280;67802;50.846;7.958;2024-02-26T03:49:38;96000.78;;;19.91;31.23
78509;BME280;67802;50.846;7.958;2024-02-26T03:52:03;96010.31;;;19.92;31.26
78509;BME280;67802;50.846;7.958;2024-02-26T03:54:29;96007.50;;;19.94;31.24
78509;BME280;67802;50.846;7.958;2024-02-26T03:56:54;96011.78;;;19.95;31.20
78509;BME280;67802;50.846;7.958;2024-02-26T03:59:19;96013.44;;;19.96;31.18
78509;BME280;67802;50.846;7.958;2024-02-26T04:01:46;96011.63;;;19.96;31.32
78509;BME280;67802;50.846;7.958;2024-02-26T04:04:15;96012.63;;;19.95;31.11
78509;BME280;67802;50.846;7.958;2024-02-26T04:06:44;96020.53;;;19.95;31.26
78509;BME280;67802;50.846;7.958;2024-02-26T04:09:09;96017.88;;;19.95;31.11
78509;BME280;67802;50.846;7.958;2024-02-26T04:11:35;96017.06;;;19.95;31.17
78509;BME280;67802;50.846;7.958;2024-02-26T04:14:00;96022.31;;;19.95;31.33
78509;BME280;67802;50.846;7.958;2024-02-26T04:16:26;96016.25;;;19.94;31.34
78509;BME280;67802;50.846;7.958;2024-02-26T04:18:51;96027.59;;;19.95;31.32
78509;BME280;67802;50.846;7.958;2024-02-26T04:21:18;96023.31;;;19.94;31.35
78509;BME280;67802;50.846;7.958;2024-02-26T04:23:44;96028.59;;;19.94;31.36
78509;BME280;67802;50.846;7.958;2024-02-26T04:26:09;96019.03;;;19.93;31.56
78509;BME280;67802;50.846;7.958;2024-02-26T04:28:34;96030.41;;;19.93;31.28
78509;BME280;67802;50.846;7.958;2024-02-26T04:31:00;96030.41;;;19.93;31.27
78509;BME280;67802;50.846;7.958;2024-02-26T04:33:25;96025.16;;;19.93;31.41
78509;BME280;67802;50.846;7.958;2024-02-26T04:35:51;96029.56;;;19.93;31.36
78509;BME280;67802;50.846;7.958;2024-02-26T04:38:16;96028.78;;;19.92;31.50
78509;BME280;67802;50.846;7.958;2024-02-26T04:40:41;96028.78;;;19.92;31.37
78509;BME280;67802;50.846;7.958;2024-02-26T04:43:07;96024.31;;;19.93;31.90
78509;BME280;67802;50.846;7.958;2024-02-26T04:45:32;96028.78;;;19.92;31.38
78509;BME280;67802;50.846;7.958;2024-02-26T04:47:57;96033.84;;;19.94;31.46
78509;BME280;67802;50.846;7.958;2024-02-26T04:50:23;96034.69;;;19.94;31.43
78509;BME280;67802;50.846;7.958;2024-02-26T04:52:48;96036.50;;;19.94;31.35
78509;BME280;67802;50.846;7.958;2024-02-26T04:55:13;96046.22;;;19.93;31.34
78509;BME280;67802;50.846;7.958;2024-02-26T04:57:38;96049.66;;;19.94;31.43
78509;BME280;67802;50.846;7.958;2024-02-26T05:00:05;96049.00;;;19.92;31.46
78509;BME280;67802;50.846;7.958;2024-02-26T05:02:30;96048.22;;;19.91;31.45
78509;BME280;67802;50.846;7.958;2024-02-26T05:04:58;96048.22;;;19.91;31.43
78509;BME280;67802;50.846;7.958;2024-02-26T05:07:23;96053.63;;;19.90;31.77
78509;BME280;67802;50.846;7.958;2024-02-26T05:09:49;96054.63;;;19.89;31.34
78509;BME280;67802;50.846;7.958;2024-02-26T05:12:17;96055.47;;;19.89;31.42
78509;BME280;67802;50.846;7.958;2024-02-26T05:14:42;96061.88;;;19.86;31.61
78509;BME280;67802;50.846;7.958;2024-02-26T05:17:08;96052.31;;;19.85;31.46
78509;BME280;67802;50.846;7.958;2024-02-26T05:19:33;96054.13;;;19.85;31.45
78509;BME280;67802;50.846;7.958;2024-02-26T05:21:58;96058.56;;;19.84;31.67
78509;BME280;67802;50.846;7.958;2024-02-26T05:24:23;96057.09;;;19.82;31.46
78509;BME280;67802;50.846;7.958;2024-02-26T05:26:49;96046.72;;;19.80;31.46
78509;BME280;67802;50.846;7.958;2024-02-26T05:29:14;96053.13;;;19.78;31.56
78509;BME280;67802;50.846;7.958;2024-02-26T05:31:42;96065.31;;;19.79;31.54
78509;BME280;67802;50.846;7.958;2024-02-26T05:34:07;96062.03;;;19.77;31.68
78509;BME280;67802;50.846;7.958;2024-02-26T05:36:32;96056.75;;;19.77;31.64
78509;BME280;67802;50.846;7.958;2024-02-26T05:39:02;96065.66;;;19.76;31.59
78509;BME280;67802;50.846;7.958;2024-02-26T05:41:28;96063.03;;;19.76;31.65
78509;BME280;67802;50.846;7.958;2024-02-26T05:43:54;96064.00;;;19.75;31.77
78509;BME280;67802;50.846;7.958;2024-02-26T05:46:20;96075.38;;;19.75;31.52
78509;BME280;67802;50.846;7.958;2024-02-26T05:48:52;96071.91;;;19.75;31.83
78509;BME280;67802;50.846;7.958;2024-02-26T05:51:18;96074.53;;;19.75;31.71
78509;BME280;67802;50.846;7.958;2024-02-26T05:53:43;96070.13;;;19.75;31.58
78509;BME280;67802;50.846;7.958;2024-02-26T05:56:09;96075.38;;;19.75;31.69
78509;BME280;67802;50.846;7.958;2024-02-26T05:58:34;96070.13;;;19.75;31.69
78509;BME280;67802;50.846;7.958;2024-02-26T06:01:00;96081.47;;;19.76;31.59
78509;BME280;67802;50.846;7.958;2024-02-26T06:03:25;96076.19;;;19.76;31.59
78509;BME280;67802;50.846;7.958;2024-02-26T06:05:51;96078.81;;;19.76;31.62
78509;BME280;67802;50.846;7.958;2024-02-26T06:08:16;96078.81;;;19.76;31.64
78509;BME280;67802;50.846;7.958;2024-02-26T06:10:42;96081.47;;;19.76;31.64
78509;BME280;67802;50.846;7.958;2024-02-26T06:13:07;96092.66;;;19.78;31.59
78509;BME280;67802;50.846;7.958;2024-02-26T06:15:32;96088.38;;;19.77;31.68
78509;BME280;67802;50.846;7.958;2024-02-26T06:17:57;96093.50;;;19.78;31.65
78509;BME280;67802;50.846;7.958;2024-02-26T06:20:23;96096.13;;;19.78;31.51
78509;BME280;67802;50.846;7.958;2024-02-26T06:22:48;96098.59;;;19.80;31.54
78509;BME280;67802;50.846;7.958;2024-02-26T06:25:13;96090.53;;;19.81;31.56
78509;BME280;67802;50.846;7.958;2024-02-26T06:27:39;96105.50;;;19.81;31.64
78509;BME280;67802;50.846;7.958;2024-02-26T06:30:05;96104.34;;;19.83;31.67
78509;BME280;67802;50.846;7.958;2024-02-26T06:32:30;96107.66;;;19.85;31.61
78509;BME280;67802;50.846;7.958;2024-02-26T06:34:55;96101.53;;;19.85;31.51
78509;BME280;67802;50.846;7.958;2024-02-26T06:37:21;96110.09;;;19.87;31.65
78509;BME280;67802;50.846;7.958;2024-02-26T06:39:47;96113.44;;;19.89;31.46
78509;BME280;67802;50.846;7.958;2024-02-26T06:42:12;96115.88;;;19.91;31.61
78509;BME280;67802;50.846;7.958;2024-02-26T06:44:38;96113.25;;;19.91;31.58
78509;BME280;67802;50.846;7.958;2024-02-26T06:47:03;96115.72;;;19.92;31.63
78509;BME280;67802;50.846;7.958;2024-02-26T06:49:29;96120.00;;;19.93;31.52
78509;BME280;67802;50.846;7.958;2024-02-26T06:51:54;96121.66;;;19.94;31.56
78509;BME280;67802;50.846;7.958;2024-02-26T06:54:20;96130.22;;;19.96;31.57
78509;BME280;67802;50.846;7.958;2024-02-26T06:56:45;96123.97;;;19.97;31.80
78509;BME280;67802;50.846;7.958;2024-02-26T06:59:11;96136.16;;;19.98;31.52
78509;BME280;67802;50.846;7.958;2024-02-26T07:01:36;96137.94;;;19.98;31.46
78509;BME280;67802;50.846;7.958;2024-02-26T07:04:01;96149.31;;;19.98;31.53
78509;BME280;67802;50.846;7.958;2024-02-26T07:06:27;96146.50;;;20.00;31.57
78509;BME280;67802;50.846;7.958;2024-02-26T07:08:52;96145.69;;;19.99;31.86
78509;BME280;67802;50.846;7.958;2024-02-26T07:11:17;96156.25;;;19.99;31.69
78509;BME280;67802;50.846;7.958;2024-02-26T07:13:45;96158.88;;;19.99;31.47
78509;BME280;67802;50.846;7.958;2024-02-26T07:16:10;96161.50;;;19.99;31.50
78509;BME280;67802;50.846;7.958;2024-02-26T07:18:36;96169.41;;;19.99;31.57
78509;BME280;67802;50.846;7.958;2024-02-26T07:21:02;96166.78;;;19.99;31.52
78509;BME280;67802;50.846;7.958;2024-02-26T07:23:27;96172.06;;;19.99;31.57
78509;BME280;67802;50.846;7.958;2024-02-26T07:25:53;96173.03;;;19.98;31.44
78509;BME280;67802;50.846;7.958;2024-02-26T07:28:19;96179.31;;;19.97;31.62
78509;BME280;67802;50.846;7.958;2024-02-26T07:30:44;96175.03;;;19.96;31.51
78509;BME280;67802;50.846;7.958;2024-02-26T07:33:10;96181.94;;;19.97;31.70
78509;BME280;67802;50.846;7.958;2024-02-26T07:35:35;96180.94;;;19.98;31.55
78509;BME280;67802;50.846;7.958;2024-02-26T07:38:01;96185.38;;;19.98;31.68
78509;BME280;67802;50.846;7.958;2024-02-26T07:40:27;96182.75;;;19.98;31.62
78509;BME280;67802;50.846;7.958;2024-02-26T07:42:52;96187.22;;;19.97;31.50
78509;BME280;67802;50.846;7.958;2024-02-26T07:45:17;96180.94;;;19.98;31.64
78509;BME280;67802;50.846;7.958;2024-02-26T07:47:45;96180.94;;;19.98;31.60
78509;BME280;67802;50.846;7.958;2024-02-26T07:50:11;96187.03;;;19.99;31.64
78509;BME280;67802;50.846;7.958;2024-02-26T07:52:37;96182.75;;;19.98;31.48
78509;BME280;67802;50.846;7.958;2024-02-26T07:55:02;96185.38;;;19.98;31.62
78509;BME280;67802;50.846;7.958;2024-02-26T07:57:28;96189.00;;;19.97;31.46
78509;BME280;67802;50.846;7.958;2024-02-26T07:59:53;96187.22;;;19.97;31.51
78509;BME280;67802;50.846;7.958;2024-02-26T08:02:18;96194.28;;;19.97;31.61
78509;BME280;67802;50.846;7.958;2024-02-26T08:04:44;96198.75;;;19.96;31.61
78509;BME280;67802;50.846;7.958;2024-02-26T08:07:09;96202.38;;;19.95;31.56
78509;BME280;67802;50.846;7.958;2024-02-26T08:09:34;96206.00;;;19.94;31.49
78509;BME280;67802;50.846;7.958;2024-02-26T08:12:00;96211.25;;;19.94;31.49
78509;BME280;67802;50.846;7.958;2024-02-26T08:14:25;96214.88;;;19.93;31.70
78509;BME280;67802;50.846;7.958;2024-02-26T08:16:50;96213.38;;;19.91;31.53
78509;BME280;67802;50.846;7.958;2024-02-26T08:19:16;96212.56;;;19.90;31.59
78509;BME280;67802;50.846;7.958;2024-02-26T08:21:42;96222.41;;;19.88;31.54
78509;BME280;67802;50.846;7.958;2024-02-26T08:24:08;96219.97;;;19.86;31.67
78509;BME280;67802;50.846;7.958;2024-02-26T08:26:33;96222.75;;;19.85;31.50
78509;BME280;67802;50.846;7.958;2024-02-26T08:28:58;96228.19;;;19.83;31.56
78509;BME280;67802;50.846;7.958;2024-02-26T08:31:24;96231.97;;;19.81;31.48
78509;BME280;67802;50.846;7.958;2024-02-26T08:33:49;96231.97;;;19.81;31.68
78509;BME280;67802;50.846;7.958;2024-02-26T08:36:14;96227.69;;;19.80;31.53
78509;BME280;67802;50.846;7.958;2024-02-26T08:38:39;96227.88;;;19.78;31.55
78509;BME280;67802;50.846;7.958;2024-02-26T08:41:05;96222.59;;;19.78;31.50
78509;BME280;67802;50.846;7.958;2024-02-26T08:43:30;96220.94;;;19.77;31.59
78509;BME280;67802;50.846;7.958;2024-02-26T08:45:57;96228.00;;;19.77;31.58
78509;BME280;67802;50.846;7.958;2024-02-26T08:48:22;96231.47;;;19.77;31.35
78509;BME280;67802;50.846;7.958;2024-02-26T08:50:47;96228.00;;;19.77;31.52
78509;BME280;67802;50.846;7.958;2024-02-26T08:53:12;96241.19;;;19.77;31.51
78509;BME280;67802;50.846;7.958;2024-02-26T08:55:38;96235.09;;;19.76;31.30
78509;BME280;67802;50.846;7.958;2024-02-26T08:58:03;96243.00;;;19.76;31.45
78509;BME280;67802;50.846;7.958;2024-02-26T09:00:28;96253.53;;;19.76;31.40
78509;BME280;67802;50.846;7.958;2024-02-26T09:02:54;96243.16;;;19.75;31.46
78509;BME280;67802;50.846;7.958;2024-02-26T09:05:19;96253.69;;;19.75;31.38
78509;BME280;67802;50.846;7.958;2024-02-26T09:07:44;96252.72;;;19.76;31.35
78509;BME280;67802;50.846;7.958;2024-02-26T09:10:11;96258.97;;;19.75;31.38
78509;BME280;67802;50.846;7.958;2024-02-26T09:12:37;96250.06;;;19.76;31.36
78509;BME280;67802;50.846;7.958;2024-02-26T09:15:06;96256.19;;;19.76;31.11
78509;BME280;67802;50.846;7.958;2024-02-26T09:17:31;96251.72;;;19.77;31.38
78509;BME280;67802;50.846;7.958;2024-02-26T09:19:57;96260.28;;;19.79;31.48
78509;BME280;67802;50.846;7.958;2024-02-26T09:22:22;96257.84;;;19.77;31.24
78509;BME280;67802;50.846;7.958;2024-02-26T09:24:48;96255.03;;;19.79;31.15
78509;BME280;67802;50.846;7.958;2024-02-26T09:27:15;96253.38;;;19.78;31.26
78509;BME280;67802;50.846;7.958;2024-02-26T09:29:40;96260.28;;;19.79;31.19
78509;BME280;67802;50.846;7.958;2024-02-26T09:32:06;96257.66;;;19.79;31.06
78509;BME280;67802;50.846;7.958;2024-02-26T09:34:31;96251.41;;;19.80;31.02
78509;BME280;67802;50.846;7.958;2024-02-26T09:36:56;96256.66;;;19.80;31.20
78509;BME280;67802;50.846;7.958;2024-02-26T09:39:22;96259.16;;;19.81;31.22
78509;BME280;67802;50.846;7.958;2024-02-26T09:41:48;96265.22;;;19.82;30.92
78509;BME280;67802;50.846;7.958;2024-02-26T09:44:18;96264.44;;;19.81;31.20
78509;BME280;67802;50.846;7.958;2024-02-26T09:46:47;96271.16;;;19.84;31.28
78509;BME280;67802;50.846;7.958;2024-02-26T09:49:13;96273.81;;;19.84;31.08
78509;BME280;67802;50.846;7.958;2024-02-26T09:51:40;96279.06;;;19.84;31.19
78509;BME280;67802;50.846;7.958;2024-02-26T09:54:07;96275.44;;;19.85;31.20
78509;BME280;67802;50.846;7.958;2024-02-26T09:56:35;96285.00;;;19.86;31.22
78509;BME280;67802;50.846;7.958;2024-02-26T09:59:02;96284.81;;;19.87;30.97
78509;BME280;67802;50.846;7.958;2024-02-26T10:01:31;96283.03;;;19.88;31.16
78509;BME280;67802;50.846;7.958;2024-02-26T10:03:59;96287.16;;;19.91;31.00
78509;BME280;67802;50.846;7.958;2024-02-26T10:06:28;96295.06;;;19.91;30.91
78509;BME280;67802;50.846;7.958;2024-02-26T10:08:54;96297.56;;;19.92;31.09
78509;BME280;67802;50.846;7.958;2024-02-26T10:11:22;96294.94;;;19.92;31.01
78509;BME280;67802;50.846;7.958;2024-02-26T10:13:47;96304.47;;;19.93;30.89
78509;BME280;67802;50.846;7.958;2024-02-26T10:16:12;96296.56;;;19.93;31.01
78509;BME280;67802;50.846;7.958;2024-02-26T10:19:05;96295.59;;;19.94;31.06
78509;BME280;67802;50.846;7.958;2024-02-26T10:21:30;96296.56;;;19.93;31.08
78509;BME280;67802;50.846;7.958;2024-02-26T10:23:55;96297.56;;;19.92;31.05
78509;BME280;67802;50.846;7.958;2024-02-26T10:26:21;96300.88;;;19.94;31.04
78509;BME280;67802;50.846;7.958;2024-02-26T10:28:47;96309.75;;;19.93;31.03
78509;BME280;67802;50.846;7.958;2024-02-26T10:31:14;96309.75;;;19.93;30.99
78509;BME280;67802;50.846;7.958;2024-02-26T10:33:40;96312.53;;;19.92;31.02
78509;BME280;67802;50.846;7.958;2024-02-26T10:36:07;96315.16;;;19.92;30.98
78509;BME280;67802;50.846;7.958;2024-02-26T10:38:36;96321.44;;;19.91;31.02
78509;BME280;67802;50.846;7.958;2024-02-26T10:41:13;96327.53;;;19.91;31.03
78509;BME280;67802;50.846;7.958;2024-02-26T10:43:39;96319.78;;;19.90;31.04
78509;BME280;67802;50.846;7.958;2024-02-26T10:46:08;96328.66;;;19.89;31.09
78509;BME280;67802;50.846;7.958;2024-02-26T10:48:33;96336.72;;;19.87;31.29
78509;BME280;67802;50.846;7.958;2024-02-26T10:50:58;96336.72;;;19.87;31.22
78509;BME280;67802;50.846;7.958;2024-02-26T10:53:26;96345.44;;;19.87;31.20
78509;BME280;67802;50.846;7.958;2024-02-26T10:56:04;96341.19;;;19.86;31.30
78509;BME280;67802;50.846;7.958;2024-02-26T10:58:31;96342.00;;;19.87;31.39
78509;BME280;67802;50.846;7.958;2024-02-26T11:00:57;96341.19;;;19.86;31.13
78509;BME280;67802;50.846;7.958;2024-02-26T11:03:23;96330.63;;;19.86;31.30
78509;BME280;67802;50.846;7.958;2024-02-26T11:05:49;96335.06;;;19.86;31.28
78509;BME280;67802;50.846;7.958;2024-02-26T11:08:18;96333.28;;;19.86;31.12
78509;BME280;67802;50.846;7.958;2024-02-26T11:10:43;96341.19;;;19.86;31.24
78509;BME280;67802;50.846;7.958;2024-02-26T11:13:10;96339.53;;;19.85;31.31
78509;BME280;67802;50.846;7.958;2024-02-26T11:15:37;96345.59;;;19.86;31.33
78509;BME280;67802;50.846;7.958;2024-02-26T11:18:04;96346.59;;;19.85;31.31
78509;BME280;67802;50.846;7.958;2024-02-26T11:20:32;96346.59;;;19.85;31.45
78509;BME280;67802;50.846;7.958;2024-02-26T11:22:58;96349.22;;;19.85;31.31
78509;BME280;67802;50.846;7.958;2024-02-26T11:25:23;96350.22;;;19.84;31.31
78509;BME280;67802;50.846;7.958;2024-02-26T11:27:54;96345.13;;;19.82;31.18
78509;BME280;67802;50.846;7.958;2024-02-26T11:30:25;96354.00;;;19.81;31.51
78509;BME280;67802;50.846;7.958;2024-02-26T11:32:52;96356.78;;;19.80;31.42
78509;BME280;67802;50.846;7.958;2024-02-26T11:35:18;96352.50;;;19.79;31.31
78509;BME280;67802;50.846;7.958;2024-02-26T11:37:54;96355.31;;;19.77;31.39
78509;BME280;67802;50.846;7.958;2024-02-26T11:40:19;96351.03;;;19.76;31.18
78509;BME280;67802;50.846;7.958;2024-02-26T11:42:45;96351.34;;;19.73;31.25
78509;BME280;67802;50.846;7.958;2024-02-26T11:48:13;96362.06;;;19.37;33.93
78509;BME280;67802;50.846;7.958;2024-02-26T11:50:41;96354.66;;;19.32;32.94
78509;BME280;67802;50.846;7.958;2024-02-26T11:53:20;96356.97;;;19.35;32.70
78509;BME280;67802;50.846;7.958;2024-02-26T11:55:45;96355.66;;;19.39;32.44
78509;BME280;67802;50.846;7.958;2024-02-26T11:58:10;96364.06;;;19.43;32.43
78509;BME280;67802;50.846;7.958;2024-02-26T12:00:36;96358.66;;;19.45;32.51
78509;BME280;67802;50.846;7.958;2024-02-26T12:03:02;96360.31;;;19.46;32.50
78509;BME280;67802;50.846;7.958;2024-02-26T12:05:31;96354.06;;;19.47;32.43
78509;BME280;67802;50.846;7.958;2024-02-26T12:08:03;96345.84;;;19.50;32.62
78509;BME280;67802;50.846;7.958;2024-02-26T12:10:41;96352.75;;;19.51;32.53
78509;BME280;67802;50.846;7.958;2024-02-26T12:13:13;96349.94;;;19.52;32.08
78509;BME280;67802;50.846;7.958;2024-02-26T12:15:44;96353.44;;;19.53;32.20
78509;BME280;67802;50.846;7.958;2024-02-26T12:18:10;96349.81;;;19.54;32.20
78509;BME280;67802;50.846;7.958;2024-02-26T12:20:37;96348.81;;;19.55;32.05
78509;BME280;67802;50.846;7.958;2024-02-26T12:23:03;96352.13;;;19.57;32.16
78509;BME280;67802;50.846;7.958;2024-02-26T12:25:30;96356.72;;;19.55;32.21
78509;BME280;67802;50.846;7.958;2024-02-26T12:27:57;96363.97;;;19.53;32.40
78509;BME280;67802;50.846;7.958;2024-02-26T12:30:23;96367.56;;;19.52;32.39
78509;BME280;67802;50.846;7.958;2024-02-26T12:32:49;96367.91;;;19.49;32.30
78509;BME280;67802;50.846;7.958;2024-02-26T12:35:16;96370.66;;;19.47;32.26
78509;BME280;67802;50.846;7.958;2024-02-26T12:37:43;96372.50;;;19.47;32.23
78509;BME280;67802;50.846;7.958;2024-02-26T12:40:09;96385.81;;;19.45;32.45
78509;BME280;67802;50.846;7.958;2024-02-26T12:42:38;96382.50;;;19.43;32.57
78509;BME280;67802;50.846;7.958;2024-02-26T12:45:08;96390.56;;;19.41;32.43
78509;BME280;67802;50.846;7.958;2024-02-26T12:47:40;96390.56;;;19.41;32.50
78509;BME280;67802;50.846;7.958;2024-02-26T12:50:07;96399.44;;;19.40;32.62
78509;BME280;67802;50.846;7.958;2024-02-26T12:52:34;96392.53;;;19.39;32.51
78509;BME280;67802;50.846;7.958;2024-02-26T12:55:01;96408.53;;;19.20;32.46
78509;BME280;67802;50.846;7.958;2024-02-26T12:57:28;96404.88;;;18.68;33.03